Terminal Aerodrome Forecast
Issued by NWS

Home | Current Version | Previous Version | Graphics & Text | Print | Product List | Glossary On
Versions: 1 2 3 4 5 6 7 8 9 10 11 12 13 14 15 16
000
FTUS43 KICT 270631 AAA
TAFCNU
TAF AMD
KCNU 270631Z 2707/2806 07003KT 1SM BR SKC
      TEMPO 2708/2712 1/2SM FG VV002
     FM271200 11006KT 3SM BR FEW012
     FM271500 13008KT 6SM BR SCT020
     FM271700 15010KT P6SM BKN030
     FM272200 16012KT P6SM VCSH OVC025=

USA.gov is the U.S. government's official web portal to all federal, state and local government web resources and services.